Time;durP1;ratioP1;P1;durP2;ratioP2;P2;SDS_P1;SDS_P2;PMS_P1;PMS_P2;Temp;Humidity;BMP_temperature;BMP_pressure;BME280_temperature;BME280_humidity;BME280_pressure;Samples;Min_cycle;Max_cycle;Signal;HPM_P1;HPM_P2
2022/03/03 00:00:13;;;;;;;10.25;8.58;;;;;;;4.55;75.21;99052.72;1756615;80;20872;-63
2022/03/03 00:02:42;;;;;;;9.88;8.13;;;;;;;4.59;75.19;99046.69;1754822;80;21024;-63
2022/03/03 00:05:09;;;;;;;11.25;9.00;;;;;;;4.64;75.09;99052.36;1755437;80;20931;-64
2022/03/03 00:07:37;;;;;;;10.75;8.65;;;;;;;4.64;74.96;99047.89;1755678;80;20900;-63
2022/03/03 00:10:06;;;;;;;9.55;8.20;;;;;;;4.67;74.93;99051.56;1767926;80;21161;-62
2022/03/03 00:12:35;;;;;;;11.50;8.83;;;;;;;4.67;74.90;99041.02;1755240;80;20998;-62
2022/03/03 00:15:04;;;;;;;9.78;8.55;;;;;;;4.67;74.88;99046.30;1749741;80;20975;-63
2022/03/03 00:17:31;;;;;;;10.72;9.00;;;;;;;4.67;74.90;99038.87;1749961;80;21061;-62
2022/03/03 00:19:58;;;;;;;10.63;9.53;;;;;;;4.65;74.86;99039.02;1771584;80;20848;-62
2022/03/03 00:22:25;;;;;;;12.18;9.43;;;;;;;4.63;74.84;99040.98;1769124;80;21161;-63
2022/03/03 00:24:54;;;;;;;12.05;9.88;;;;;;;4.63;74.82;99042.30;1741800;81;20907;-62
2022/03/03 00:27:21;;;;;;;11.90;9.65;;;;;;;4.63;74.82;99037.03;1768503;80;21478;-62
2022/03/03 00:29:48;;;;;;;12.15;9.70;;;;;;;4.61;74.86;99033.71;1762319;80;21430;-62
2022/03/03 00:32:15;;;;;;;10.55;9.25;;;;;;;4.61;74.92;99034.19;1759963;80;21515;-62
2022/03/03 00:34:43;;;;;;;12.20;9.65;;;;;;;4.65;74.94;99029.80;1741945;80;21229;-62
2022/03/03 00:37:10;;;;;;;12.58;9.85;;;;;;;4.66;74.79;99032.80;1756703;80;20883;-62
2022/03/03 00:39:37;;;;;;;11.83;9.35;;;;;;;4.65;74.86;99028.97;1760904;80;20943;-62
2022/03/03 00:42:05;;;;;;;13.10;9.85;;;;;;;4.63;74.92;99025.66;1771522;80;20990;-62
2022/03/03 00:44:32;;;;;;;10.60;9.45;;;;;;;4.65;74.90;99019.74;1742051;81;21000;-62
2022/03/03 00:46:59;;;;;;;10.65;9.00;;;;;;;4.66;74.83;99013.52;1743987;82;21158;-62
2022/03/03 00:49:26;;;;;;;11.65;9.60;;;;;;;4.69;74.72;99014.03;1744454;82;20983;-63
2022/03/03 00:51:53;;;;;;;12.03;8.73;;;;;;;4.72;74.67;99016.90;1746004;81;20931;-63
2022/03/03 00:54:20;;;;;;;11.78;9.63;;;;;;;4.73;74.63;99011.47;1749584;81;20990;-63
2022/03/03 00:56:47;;;;;;;10.43;8.80;;;;;;;4.74;74.60;99014.46;1735440;82;20917;-62
2022/03/03 00:59:14;;;;;;;11.22;8.93;;;;;;;4.76;74.51;99009.03;1738421;81;21836;-62
2022/03/03 01:01:42;;;;;;;11.78;8.83;;;;;;;4.73;74.51;99003.56;1733073;81;21048;-62
2022/03/03 01:04:09;;;;;;;12.10;9.83;;;;;;;4.76;74.42;99006.39;1738859;81;20940;-62
2022/03/03 01:06:37;;;;;;;11.68;9.88;;;;;;;4.75;74.44;99004.24;1735000;82;20956;-62
2022/03/03 01:09:04;;;;;;;12.33;9.20;;;;;;;4.75;74.44;99002.92;1743218;81;21557;-62
2022/03/03 01:11:32;;;;;;;13.40;10.32;;;;;;;4.72;74.46;99001.89;1756790;81;22340;-61
2022/03/03 01:13:59;;;;;;;12.00;8.93;;;;;;;4.69;74.45;99000.86;1744793;81;20880;-62
2022/03/03 01:16:26;;;;;;;10.63;8.18;;;;;;;4.67;74.46;98996.23;1737248;81;21379;-63
2022/03/03 01:18:53;;;;;;;10.93;8.48;;;;;;;4.69;74.44;98998.73;1735428;81;21515;-62
2022/03/03 01:21:20;;;;;;;10.20;8.83;;;;;;;4.71;74.29;98998.09;1747713;80;21475;-63
2022/03/03 01:23:47;;;;;;;9.10;8.15;;;;;;;4.70;74.25;98997.27;1753854;80;21793;-62
2022/03/03 01:26:14;;;;;;;12.20;8.25;;;;;;;4.69;74.17;98991.64;1744900;81;21482;-64
2022/03/03 01:28:41;;;;;;;10.23;7.97;;;;;;;4.71;74.01;98992.83;1734869;82;21628;-63
2022/03/03 01:31:09;;;;;;;9.50;8.00;;;;;;;4.67;73.89;98986.17;1755556;81;21007;-63
2022/03/03 01:33:36;;;;;;;8.78;7.87;;;;;;;4.68;73.77;98995.27;1761272;81;21500;-63
2022/03/03 01:36:04;;;;;;;7.47;6.70;;;;;;;4.65;73.72;98983.69;1756536;81;21813;-63
2022/03/03 01:38:31;;;;;;;8.20;6.60;;;;;;;4.63;73.68;98980.37;1738938;81;20943;-62
2022/03/03 01:40:58;;;;;;;10.43;7.03;;;;;;;4.63;73.51;98975.59;1735306;81;20992;-62
2022/03/03 01:43:25;;;;;;;7.83;7.03;;;;;;;4.62;73.43;98973.92;1749215;81;20998;-63
2022/03/03 01:45:52;;;;;;;8.35;7.12;;;;;;;4.63;73.22;98971.16;1753170;81;21000;-63
2022/03/03 01:48:19;;;;;;;7.78;6.95;;;;;;;4.64;73.04;98972.80;1736094;81;21145;-63
2022/03/03 01:50:46;;;;;;;10.03;7.33;;;;;;;4.76;72.48;98966.39;1736550;81;20917;-63
2022/03/03 01:53:13;;;;;;;8.88;7.25;;;;;;;4.72;72.62;98970.78;1736898;81;21490;-63
2022/03/03 01:55:40;;;;;;;7.15;6.00;;;;;;;4.69;72.70;98964.48;1756328;81;22455;-63
2022/03/03 01:58:07;;;;;;;8.08;6.97;;;;;;;4.69;72.78;98968.44;1740907;81;21419;-63
2022/03/03 02:00:36;;;;;;;8.93;6.60;;;;;;;4.69;72.81;98971.07;1734132;81;21421;-63
2022/03/03 02:03:06;;;;;;;7.62;6.72;;;;;;;4.69;72.77;98968.44;1730542;82;20941;-63
2022/03/03 02:05:33;;;;;;;12.75;7.67;;;;;;;4.68;72.67;98968.08;1731135;81;20913;-62
2022/03/03 02:08:01;;;;;;;9.00;7.28;;;;;;;4.67;72.67;98967.24;1732881;81;21575;-64
2022/03/03 02:10:31;;;;;;;10.25;7.35;;;;;;;4.64;72.68;98968.84;1739789;81;20892;-62
2022/03/03 02:12:59;;;;;;;7.85;6.53;;;;;;;4.65;72.65;98966.56;1730646;82;21983;-63
2022/03/03 02:15:26;;;;;;;8.63;7.53;;;;;;;4.64;72.95;98964.89;1736099;82;21562;-63
2022/03/03 02:17:54;;;;;;;9.33;8.05;;;;;;;4.64;72.75;98960.14;1740201;81;21490;-63
2022/03/03 02:20:27;;;;;;;7.62;6.85;;;;;;;4.64;72.73;98958.31;1684907;84;21513;-63
2022/03/03 02:22:55;;;;;;;8.95;7.00;;;;;;;4.64;72.81;98956.19;1709146;83;20999;-63
2022/03/03 02:25:23;;;;;;;8.03;6.80;;;;;;;4.62;72.77;98948.89;1708192;83;21267;-63
2022/03/03 02:27:50;;;;;;;8.43;7.20;;;;;;;4.63;72.74;98948.77;1708239;83;21398;-64
2022/03/03 02:30:18;;;;;;;7.97;7.17;;;;;;;4.63;72.47;98951.88;1707034;83;21494;-65
2022/03/03 02:32:46;;;;;;;8.93;6.87;;;;;;;4.64;72.33;98953.04;1744405;81;20961;-63
2022/03/03 02:35:13;;;;;;;8.18;6.70;;;;;;;4.66;71.99;98951.11;1731363;82;21531;-63
2022/03/03 02:37:43;;;;;;;9.30;7.62;;;;;;;4.64;72.05;98941.19;1730583;82;21160;-63
2022/03/03 02:40:13;;;;;;;8.65;7.62;;;;;;;4.62;72.01;98945.78;1730095;81;20953;-62
2022/03/03 02:42:40;;;;;;;8.93;7.30;;;;;;;4.62;72.02;98943.63;1746902;81;21425;-62
2022/03/03 02:45:08;;;;;;;10.25;6.78;;;;;;;4.63;71.90;98938.70;1755851;81;20944;-62
2022/03/03 02:47:42;;;;;;;9.18;7.65;;;;;;;4.63;71.85;98942.17;1756239;81;21011;-62
2022/03/03 02:50:10;;;;;;;9.70;7.37;;;;;;;4.71;71.51;98939.64;1731860;81;21149;-62
2022/03/03 02:52:38;;;;;;;8.25;7.42;;;;;;;4.67;71.48;98936.94;1734931;82;20897;-63
2022/03/03 02:55:07;;;;;;;8.70;7.25;;;;;;;4.61;71.63;98932.28;1734976;82;20961;-63
2022/03/03 03:00:26;;;;;;;9.50;7.62;;;;;;;4.70;71.41;98931.39;1744211;80;21119;-62
2022/03/03 03:02:53;;;;;;;8.70;7.28;;;;;;;4.56;71.57;98927.10;1743897;82;21075;-63
2022/03/03 03:05:20;;;;;;;8.80;7.37;;;;;;;4.54;71.67;98921.13;1743904;82;21476;-63
2022/03/03 03:07:48;;;;;;;11.28;8.10;;;;;;;4.53;71.71;98924.27;1762968;80;20936;-63
2022/03/03 03:10:15;;;;;;;9.33;7.33;;;;;;;4.55;71.61;98915.73;1745306;80;21017;-62
2022/03/03 03:12:44;;;;;;;7.97;7.15;;;;;;;4.56;71.49;98920.03;1744694;80;20978;-63
2022/03/03 03:15:11;;;;;;;9.25;7.22;;;;;;;4.55;71.54;98915.73;1770101;80;21994;-62
2022/03/03 03:17:39;;;;;;;9.08;7.87;;;;;;;4.56;71.50;98916.08;1743761;80;20919;-62
2022/03/03 03:20:07;;;;;;;12.47;8.05;;;;;;;4.53;71.70;98915.05;1764291;80;21035;-62
2022/03/03 03:22:35;;;;;;;9.83;8.00;;;;;;;4.50;71.80;98911.39;1756614;80;20991;-62
2022/03/03 03:25:08;;;;;;;10.03;7.80;;;;;;;4.50;71.81;98908.75;1765335;80;20990;-62
2022/03/03 03:27:39;;;;;;;8.70;7.65;;;;;;;4.53;71.77;98908.95;1755470;80;21137;-63
2022/03/03 03:30:09;;;;;;;8.43;7.03;;;;;;;4.52;71.92;98908.11;1754633;80;21429;-62
2022/03/03 03:32:36;;;;;;;10.50;7.67;;;;;;;4.55;71.87;98899.92;1765873;80;21430;-61
2022/03/03 03:35:05;;;;;;;10.58;8.20;;;;;;;4.56;71.78;98900.27;1755689;80;21488;-63
2022/03/03 03:37:33;;;;;;;9.33;8.00;;;;;;;4.54;71.75;98896.94;1757607;80;20951;-62
2022/03/03 03:40:00;;;;;;;9.80;7.85;;;;;;;4.54;71.77;98890.83;1745357;80;21161;-62
2022/03/03 03:42:27;;;;;;;9.25;7.67;;;;;;;4.51;71.84;98889.83;1734915;81;20899;-62
2022/03/03 03:44:55;;;;;;;11.15;8.48;;;;;;;4.46;71.93;98888.13;1745521;80;21474;-62
2022/03/03 03:47:24;;;;;;;9.78;8.20;;;;;;;4.45;71.80;98894.36;1737385;81;21568;-62
2022/03/03 03:49:51;;;;;;;8.45;7.50;;;;;;;4.42;71.67;98888.06;1745312;81;21103;-67
2022/03/03 03:52:19;;;;;;;11.50;8.10;;;;;;;4.42;71.58;98891.53;1748597;80;21134;-63
2022/03/03 03:54:46;;;;;;;9.18;7.33;;;;;;;4.40;71.59;98888.70;1768234;80;20981;-63
2022/03/03 03:57:13;;;;;;;9.48;8.40;;;;;;;4.37;71.53;98887.19;1775815;80;21022;-63
2022/03/03 03:59:42;;;;;;;9.53;7.83;;;;;;;4.33;71.68;98884.48;1773722;80;21552;-63
2022/03/03 04:02:09;;;;;;;9.05;7.40;;;;;;;4.33;71.77;98888.44;1761933;80;21426;-63
2022/03/03 04:04:36;;;;;;;10.20;7.37;;;;;;;4.31;71.92;98885.96;1760401;80;21924;-63
2022/03/03 04:07:03;;;;;;;9.68;7.78;;;;;;;4.30;71.96;98884.28;1771553;80;21460;-63
2022/03/03 04:09:31;;;;;;;10.58;8.38;;;;;;;4.31;71.94;98883.80;1767292;80;21414;-64
2022/03/03 04:12:02;;;;;;;10.32;8.55;;;;;;;4.32;71.94;98888.11;1753480;80;21019;-63
2022/03/03 04:14:30;;;;;;;9.48;7.95;;;;;;;4.29;72.01;98883.97;1755796;80;21429;-63
2022/03/03 04:16:57;;;;;;;10.98;8.30;;;;;;;4.28;72.12;98880.98;1744068;82;21911;-63
2022/03/03 04:19:24;;;;;;;11.10;8.48;;;;;;;4.31;72.18;98878.54;1758661;80;22210;-63
2022/03/03 04:21:51;;;;;;;11.38;8.10;;;;;;;4.33;72.17;98882.69;1760763;80;20956;-61
2022/03/03 04:24:19;;;;;;;10.18;8.70;;;;;;;4.36;72.10;98877.61;1769605;80;20912;-63
2022/03/03 04:26:46;;;;;;;10.93;8.95;;;;;;;4.38;72.04;98873.02;1771718;80;20927;-63
2022/03/03 04:29:13;;;;;;;9.38;8.38;;;;;;;4.35;72.04;98873.34;1760351;80;21154;-62
2022/03/03 04:31:40;;;;;;;10.93;8.93;;;;;;;4.36;71.97;98868.40;1742763;80;20956;-63
2022/03/03 04:34:07;;;;;;;11.10;9.33;;;;;;;4.37;71.88;98868.75;1741334;80;20961;-63
2022/03/03 04:36:34;;;;;;;11.05;9.60;;;;;;;4.37;71.87;98870.06;1739331;82;21044;-62
2022/03/03 04:39:02;;;;;;;13.25;10.20;;;;;;;4.39;71.77;98868.11;1766198;80;21544;-62
2022/03/03 04:41:29;;;;;;;14.35;10.63;;;;;;;4.39;71.75;98865.48;1753923;80;22811;-62
2022/03/03 04:43:56;;;;;;;14.83;11.05;;;;;;;4.38;71.69;98864.64;1754482;80;21477;-63
2022/03/03 04:46:23;;;;;;;11.85;10.03;;;;;;;4.40;71.66;98861.88;1767666;80;21498;-62
2022/03/03 04:48:50;;;;;;;15.65;11.28;;;;;;;4.44;71.54;98858.45;1745167;80;21558;-63
2022/03/03 04:51:17;;;;;;;16.73;11.25;;;;;;;4.43;71.56;98859.44;1744566;80;20928;-62
2022/03/03 04:53:44;;;;;;;17.05;10.82;;;;;;;4.37;71.72;98856.90;1742405;80;21208;-63
2022/03/03 04:56:11;;;;;;;17.98;11.35;;;;;;;4.35;71.79;98854.39;1744160;80;20885;-63
2022/03/03 04:58:40;;;;;;;14.70;11.03;;;;;;;4.34;72.01;98851.44;1743230;82;20909;-63
2022/03/03 05:01:07;;;;;;;13.75;10.40;;;;;;;4.61;71.65;98848.45;1742138;80;20941;-63
2022/03/03 05:03:34;;;;;;;15.10;11.78;;;;;;;4.67;71.40;98853.95;1748318;80;20991;-64
2022/03/03 05:06:02;;;;;;;14.87;11.00;;;;;;;4.67;71.48;98844.72;1754953;80;22025;-62
2022/03/03 05:08:29;;;;;;;16.57;12.28;;;;;;;4.71;71.59;98857.13;1748042;80;21380;-62
2022/03/03 05:10:58;;;;;;;19.32;12.30;;;;;;;4.76;71.61;98850.92;1758734;80;20881;-61
2022/03/03 05:13:26;;;;;;;15.83;11.22;;;;;;;4.79;71.60;98858.05;1752750;80;21550;-62
2022/03/03 05:15:53;;;;;;;16.15;12.00;;;;;;;4.84;71.47;98858.43;1763881;80;20951;-62
2022/03/03 05:18:20;;;;;;;14.78;11.33;;;;;;;4.63;71.95;98857.87;1769383;80;21157;-63
2022/03/03 05:20:47;;;;;;;21.02;13.13;;;;;;;4.48;72.80;98857.20;1761072;80;20868;-63
2022/03/03 05:23:14;;;;;;;15.58;11.88;;;;;;;4.51;72.62;98855.08;1755632;80;20928;-62
2022/03/03 05:25:41;;;;;;;16.85;12.25;;;;;;;4.52;72.42;98848.01;1753425;80;20965;-64
2022/03/03 05:28:08;;;;;;;17.60;12.75;;;;;;;4.52;72.20;98850.64;1767515;80;21417;-64
2022/03/03 05:30:35;;;;;;;17.00;13.08;;;;;;;4.52;72.17;98855.91;1760047;80;21825;-61
2022/03/03 05:33:03;;;;;;;16.55;12.20;;;;;;;4.51;72.30;98851.13;1762966;80;20935;-62
2022/03/03 05:35:30;;;;;;;16.75;11.15;;;;;;;4.58;72.27;98856.65;1765339;80;20884;-62
2022/03/03 05:37:59;;;;;;;15.30;11.70;;;;;;;4.63;72.11;98858.35;1740778;82;20941;-63
2022/03/03 05:40:26;;;;;;;17.82;13.18;;;;;;;4.67;71.99;98853.95;1759298;80;20921;-63
2022/03/03 05:42:53;;;;;;;17.73;11.65;;;;;;;4.71;71.87;98859.28;1753334;80;21155;-63
2022/03/03 05:45:21;;;;;;;19.12;12.55;;;;;;;4.75;71.91;98867.70;1743871;80;20941;-62
2022/03/03 05:47:48;;;;;;;20.80;13.90;;;;;;;4.79;71.78;98858.05;1745529;80;21421;-62
2022/03/03 05:50:15;;;;;;;22.22;13.25;;;;;;;4.82;71.52;98860.88;1742040;81;21475;-63
2022/03/03 05:52:43;;;;;;;18.90;13.90;;;;;;;4.84;71.43;98863.70;1738106;82;21007;-63
2022/03/03 05:55:10;;;;;;;20.15;13.35;;;;;;;4.90;71.47;98862.28;1711720;82;21918;-63
2022/03/03 05:57:41;;;;;;;18.95;12.95;;;;;;;4.95;71.35;98863.47;1708330;82;21401;-64
2022/03/03 06:00:17;;;;;;;21.12;13.75;;;;;;;5.04;71.10;98860.91;1723987;82;20930;-63
2022/03/03 06:02:52;;;;;;;21.75;13.78;;;;;;;5.07;70.95;98857.98;1712635;82;20949;-63
2022/03/03 06:05:23;;;;;;;19.57;14.10;;;;;;;5.13;70.84;98857.38;1729222;82;20887;-63
2022/03/03 06:07:54;;;;;;;18.12;13.18;;;;;;;5.16;70.98;98854.45;1731167;80;21146;-63
2022/03/03 06:10:24;;;;;;;17.95;11.83;;;;;;;5.21;70.89;98853.02;1731943;82;21022;-65
2022/03/03 06:13:24;;;;;;;18.05;14.15;;;;;;;5.28;70.71;98858.02;1735463;81;20941;-62
2022/03/03 06:15:52;;;;;;;19.48;13.80;;;;;;;5.34;70.62;98847.36;1730850;82;21025;-63
2022/03/03 06:18:26;;;;;;;15.60;12.47;;;;;;;5.40;70.49;98855.47;1733384;82;20978;-63
2022/03/03 06:20:59;;;;;;;17.17;12.28;;;;;;;5.46;70.52;98851.40;1727012;82;21138;-64
2022/03/03 06:23:30;;;;;;;19.17;13.32;;;;;;;5.53;70.27;98851.95;1726090;82;20886;-63
2022/03/03 06:26:06;;;;;;;23.45;14.20;;;;;;;5.57;69.99;98849.36;1720486;82;21066;-66
2022/03/03 06:28:35;;;;;;;22.42;13.25;;;;;;;5.60;69.77;98845.06;1724464;80;21572;-64
2022/03/03 06:31:04;;;;;;;17.95;13.95;;;;;;;5.63;69.52;98840.00;1728111;81;21045;-64
2022/03/03 06:33:33;;;;;;;20.12;13.95;;;;;;;5.64;69.40;98837.68;1713406;82;21147;-64
2022/03/03 06:36:00;;;;;;;21.82;13.95;;;;;;;5.65;69.33;98840.67;1728538;81;20926;-62
2022/03/03 06:38:27;;;;;;;35.52;24.90;;;;;;;5.66;69.19;98842.30;1727495;82;20950;-62
2022/03/03 06:40:57;;;;;;;39.33;24.77;;;;;;;5.65;68.93;98839.35;1735078;82;21025;-62
2022/03/03 06:43:25;;;;;;;24.43;17.12;;;;;;;5.69;69.04;98834.57;1730489;81;21527;-62
2022/03/03 06:45:52;;;;;;;17.95;13.43;;;;;;;5.78;69.08;98838.93;1732097;82;21845;-64
2022/03/03 06:48:20;;;;;;;20.27;13.25;;;;;;;5.87;68.87;98840.66;1731696;82;21405;-63
2022/03/03 06:50:52;;;;;;;19.15;12.55;;;;;;;5.91;68.65;98846.81;1674764;85;20961;-65
2022/03/03 06:53:28;;;;;;;19.85;12.50;;;;;;;5.92;68.57;98843.66;1740526;80;20964;-61
2022/03/03 06:56:09;;;;;;;16.52;13.13;;;;;;;5.95;68.41;98840.22;1759258;81;21148;-63
2022/03/03 06:58:36;;;;;;;16.87;12.37;;;;;;;5.98;68.34;98839.91;1753821;81;21241;-63
2022/03/03 07:01:06;;;;;;;15.72;12.53;;;;;;;6.01;68.22;98839.61;1736926;81;20928;-63
2022/03/03 07:03:34;;;;;;;15.98;11.75;;;;;;;6.08;68.05;98845.91;1753807;81;20931;-61
2022/03/03 07:06:03;;;;;;;15.10;12.30;;;;;;;6.19;67.68;98843.48;1738488;81;20853;-64
2022/03/03 07:08:33;;;;;;;15.45;11.20;;;;;;;6.23;67.21;98842.69;1730923;81;21021;-63
2022/03/03 07:11:00;;;;;;;16.35;11.53;;;;;;;6.24;66.89;98837.23;1728165;81;21110;-65
2022/03/03 07:13:29;;;;;;;15.55;12.33;;;;;;;6.26;66.91;98835.77;1701027;84;20911;-63
2022/03/03 07:16:11;;;;;;;16.90;11.83;;;;;;;6.31;66.76;98831.64;1738824;80;21429;-64
2022/03/03 07:18:42;;;;;;;15.83;11.83;;;;;;;6.26;67.06;98827.33;1732241;81;20903;-63
2022/03/03 07:21:18;;;;;;;13.78;11.63;;;;;;;6.33;67.15;98832.34;1694342;83;21387;-64
2022/03/03 07:23:48;;;;;;;14.63;11.70;;;;;;;6.42;67.15;98834.49;1721975;82;21175;-62
2022/03/03 07:26:18;;;;;;;17.75;12.37;;;;;;;6.47;67.09;98826.42;1722072;81;20957;-63
2022/03/03 07:28:49;;;;;;;15.00;11.70;;;;;;;6.52;67.02;98829.90;1724352;81;21504;-64
2022/03/03 07:31:17;;;;;;;12.73;11.28;;;;;;;6.58;66.92;98832.75;1722771;81;21554;-63
2022/03/03 07:33:58;;;;;;;12.78;10.18;;;;;;;6.61;66.59;98827.14;1723023;81;20963;-64
2022/03/03 07:36:32;;;;;;;16.00;11.25;;;;;;;6.61;66.29;98827.63;1724941;81;21149;-61
2022/03/03 07:39:03;;;;;;;15.28;11.03;;;;;;;6.63;66.07;98822.52;1723782;81;20996;-63
2022/03/03 07:41:32;;;;;;;13.62;10.93;;;;;;;6.67;65.94;98826.48;1721720;81;20915;-64
2022/03/03 07:43:59;;;;;;;13.93;11.75;;;;;;;6.68;65.77;98832.59;1736174;81;21446;-63
2022/03/03 07:46:27;;;;;;;16.67;13.70;;;;;;;6.71;65.55;98827.83;1735413;81;21524;-64
2022/03/03 07:48:55;;;;;;;13.78;12.33;;;;;;;6.77;65.26;98831.16;1730948;81;21803;-61
2022/03/03 07:51:23;;;;;;;15.53;12.18;;;;;;;6.74;64.98;98830.64;1719354;81;21440;-62
2022/03/03 07:53:50;;;;;;;14.68;12.03;;;;;;;6.81;64.79;98829.83;1666003;82;21463;-64
2022/03/03 07:56:29;;;;;;;15.03;13.30;;;;;;;6.84;64.65;98825.55;1734705;82;21502;-63
2022/03/03 07:59:03;;;;;;;14.68;12.50;;;;;;;6.86;64.41;98829.34;1726831;82;21051;-62
2022/03/03 08:01:34;;;;;;;14.20;12.35;;;;;;;6.86;64.28;98828.53;1728316;82;21512;-63
2022/03/03 08:04:01;;;;;;;13.83;11.95;;;;;;;6.83;64.23;98826.52;1728384;82;20984;-67
2022/03/03 08:06:30;;;;;;;13.93;12.43;;;;;;;6.85;64.11;98835.63;1730976;82;21055;-62
2022/03/03 08:08:59;;;;;;;15.70;13.32;;;;;;;6.82;63.97;98834.63;1732822;82;21104;-63
2022/03/03 08:11:28;;;;;;;15.20;12.53;;;;;;;6.82;63.90;98828.02;1734334;82;20985;-62
2022/03/03 08:13:56;;;;;;;16.73;14.45;;;;;;;6.90;63.55;98824.56;1733056;82;21185;-63
2022/03/03 08:16:24;;;;;;;16.27;13.98;;;;;;;6.90;63.64;98821.42;1728852;82;20971;-61
2022/03/03 08:18:51;;;;;;;15.83;13.98;;;;;;;6.97;63.53;98821.09;1730455;82;20951;-64
2022/03/03 08:21:18;;;;;;;15.43;13.48;;;;;;;7.04;63.46;98818.64;1728790;82;21568;-62
2022/03/03 08:23:45;;;;;;;17.20;13.43;;;;;;;7.08;63.28;98814.66;1667492;84;21083;-61
2022/03/03 08:26:13;;;;;;;14.28;12.73;;;;;;;7.11;63.36;98819.14;1700833;84;21368;-64
2022/03/03 08:28:41;;;;;;;14.18;12.23;;;;;;;7.17;63.32;98817.14;1701836;84;20976;-64
2022/03/03 08:31:08;;;;;;;14.75;13.28;;;;;;;7.21;63.12;98812.36;1699616;84;21067;-65
2022/03/03 08:33:59;;;;;;;15.08;13.22;;;;;;;7.19;63.10;98809.06;1698989;84;21035;-64
2022/03/03 08:36:34;;;;;;;14.43;12.95;;;;;;;7.19;62.90;98811.22;1725599;82;21576;-64
2022/03/03 08:39:04;;;;;;;14.55;13.03;;;;;;;7.20;62.97;98809.38;1735244;82;21141;-63
2022/03/03 08:41:39;;;;;;;14.80;13.15;;;;;;;7.23;62.89;98807.23;1723045;82;20929;-62
2022/03/03 08:44:10;;;;;;;16.85;13.10;;;;;;;7.28;62.76;98806.23;1716637;82;20952;-63
2022/03/03 08:46:39;;;;;;;15.88;12.18;;;;;;;7.36;62.65;98800.95;1727631;82;21547;-64
2022/03/03 08:49:10;;;;;;;13.03;11.73;;;;;;;7.40;62.46;98808.88;1734384;81;20970;-63
2022/03/03 08:51:37;;;;;;;13.88;12.45;;;;;;;7.44;62.17;98811.53;1695888;84;21785;-63
2022/03/03 08:54:05;;;;;;;12.98;11.60;;;;;;;7.48;62.11;98812.03;1739969;80;21035;-65
2022/03/03 08:56:34;;;;;;;13.78;12.35;;;;;;;7.51;62.09;98809.55;1740761;80;21011;-65
2022/03/03 08:59:01;;;;;;;14.95;12.98;;;;;;;7.48;61.85;98804.90;1751403;80;20870;-64
2022/03/03 09:01:29;;;;;;;13.68;12.13;;;;;;;7.49;61.81;98813.67;1743381;80;20999;-64
2022/03/03 09:03:59;;;;;;;13.43;12.03;;;;;;;7.38;62.18;98816.64;1751151;80;21156;-63
2022/03/03 09:06:35;;;;;;;14.63;12.78;;;;;;;7.36;62.29;98819.47;1759457;80;21058;-63
2022/03/03 09:09:02;;;;;;;14.05;12.50;;;;;;;7.30;62.00;98809.54;1726606;80;21524;-66
2022/03/03 09:11:29;;;;;;;14.98;13.25;;;;;;;7.29;61.88;98815.02;1752898;80;21066;-63
2022/03/03 09:13:57;;;;;;;15.28;13.70;;;;;;;7.22;61.90;98820.64;1754070;80;20952;-65
2022/03/03 09:16:26;;;;;;;15.38;13.70;;;;;;;7.17;62.04;98819.79;1750319;80;21101;-64
2022/03/03 09:18:53;;;;;;;14.80;12.78;;;;;;;7.13;62.04;98822.45;1734676;80;20950;-66
2022/03/03 09:21:20;;;;;;;15.48;13.45;;;;;;;7.07;62.08;98820.45;1742027;80;20927;-64
2022/03/03 09:23:48;;;;;;;15.00;13.38;;;;;;;7.09;62.19;98821.09;1753866;80;20884;-65
2022/03/03 09:26:15;;;;;;;14.25;12.73;;;;;;;7.08;62.39;98819.47;1752671;80;21082;-65
2022/03/03 09:28:42;;;;;;;14.90;13.20;;;;;;;7.09;62.47;98821.63;1754273;80;22359;-63
2022/03/03 09:31:11;;;;;;;15.83;14.18;;;;;;;7.12;62.39;98820.78;1743258;80;20986;-63
2022/03/03 09:33:38;;;;;;;14.75;13.30;;;;;;;7.13;62.43;98822.45;1754612;80;20970;-66
2022/03/03 09:36:05;;;;;;;15.72;13.32;;;;;;;7.13;62.55;98822.45;1758397;80;21046;-63
2022/03/03 09:38:33;;;;;;;16.75;13.38;;;;;;;7.14;62.62;98824.11;1736060;81;21104;-63
2022/03/03 09:41:01;;;;;;;15.40;13.75;;;;;;;7.13;62.56;98829.55;1738604;80;20956;-62
2022/03/03 09:43:28;;;;;;;14.75;13.13;;;;;;;7.14;62.64;98825.44;1751659;80;20974;-61
2022/03/03 09:45:56;;;;;;;14.18;12.80;;;;;;;7.15;62.68;98827.56;1755188;80;20998;-62
2022/03/03 09:48:23;;;;;;;13.28;11.93;;;;;;;7.13;62.77;98830.38;1757113;80;20974;-63
2022/03/03 09:50:52;;;;;;;14.30;12.85;;;;;;;7.10;62.66;98824.09;1747663;80;20935;-64
2022/03/03 09:53:19;;;;;;;14.50;12.98;;;;;;;7.16;62.73;98823.94;1734168;80;21139;-65
2022/03/03 09:55:46;;;;;;;16.12;12.45;;;;;;;7.24;62.47;98819.97;1731326;81;20994;-62
2022/03/03 09:58:14;;;;;;;13.60;12.15;;;;;;;7.26;62.47;98825.92;1758493;80;21469;-62
2022/03/03 10:00:41;;;;;;;13.65;12.25;;;;;;;7.26;62.45;98824.11;1705352;82;20947;-63
2022/03/03 10:03:12;;;;;;;13.38;11.97;;;;;;;7.30;62.52;98818.80;1732500;82;21477;-63
2022/03/03 10:05:49;;;;;;;13.25;11.68;;;;;;;7.31;62.56;98813.85;1723577;80;21152;-62
2022/03/03 10:08:19;;;;;;;13.68;12.28;;;;;;;7.35;62.57;98812.52;1759651;80;20986;-62
2022/03/03 10:10:50;;;;;;;13.50;12.05;;;;;;;7.37;62.63;98813.69;1744250;80;20992;-63
2022/03/03 10:13:18;;;;;;;13.72;12.33;;;;;;;7.40;62.83;98808.88;1757221;80;20933;-60
2022/03/03 10:15:54;;;;;;;13.25;11.97;;;;;;;7.45;63.21;98801.29;1752010;80;20969;-62
2022/03/03 10:18:24;;;;;;;12.82;11.53;;;;;;;7.52;62.78;98799.28;1736131;80;21117;-65
2022/03/03 10:21:00;;;;;;;12.37;11.08;;;;;;;7.53;62.33;98798.30;1749896;80;20931;-63
2022/03/03 10:23:30;;;;;;;11.93;10.72;;;;;;;7.51;62.16;98798.44;1753239;80;20907;-64
2022/03/03 10:25:59;;;;;;;12.35;11.05;;;;;;;7.60;61.70;98797.95;1752539;80;21058;-62
2022/03/03 10:28:28;;;;;;;12.70;11.38;;;;;;;7.65;61.59;98796.45;1756670;80;21027;-64
2022/03/03 10:31:09;;;;;;;12.68;11.38;;;;;;;7.76;61.32;98793.95;1750993;80;21137;-63
2022/03/03 10:33:46;;;;;;;12.47;11.18;;;;;;;7.79;61.31;98795.78;1756766;80;21082;-63
2022/03/03 10:36:26;;;;;;;12.45;11.25;;;;;;;7.96;61.05;98791.24;1756082;80;21089;-63
2022/03/03 10:38:59;;;;;;;13.43;11.22;;;;;;;8.09;60.50;98796.34;1749806;80;21007;-66
2022/03/03 10:41:40;;;;;;;11.73;10.50;;;;;;;8.12;60.44;98793.84;1754744;80;21008;-63
2022/03/03 10:44:11;;;;;;;12.47;11.28;;;;;;;8.19;60.35;98791.32;1754851;80;21164;-64
2022/03/03 10:46:58;;;;;;;11.30;10.20;;;;;;;8.26;60.07;98795.79;1756194;80;21013;-63
2022/03/03 10:49:26;;;;;;;11.33;10.13;;;;;;;8.29;60.03;98794.66;1752526;80;20994;-62
2022/03/03 10:51:54;;;;;;;12.18;10.58;;;;;;;7.94;67.23;98798.05;1758742;80;21936;-63
2022/03/03 10:54:21;;;;;;;11.43;10.28;;;;;;;7.81;62.05;98797.75;1752135;80;21415;-64
2022/03/03 10:56:49;;;;;;;10.82;9.73;;;;;;;7.74;62.07;98796.78;1756386;81;21097;-63
2022/03/03 10:59:24;;;;;;;10.82;9.73;;;;;;;7.71;61.83;98801.58;1680686;85;21032;-64
2022/03/03 11:01:52;;;;;;;10.38;9.40;;;;;;;7.66;61.60;98792.82;1697372;83;21074;-64
2022/03/03 11:04:23;;;;;;;11.12;10.03;;;;;;;7.64;61.71;98792.14;1694039;83;20932;-62
2022/03/03 11:06:53;;;;;;;15.35;11.43;;;;;;;7.68;61.70;98789.99;1678408;85;21121;-64
2022/03/03 11:09:20;;;;;;;11.60;10.43;;;;;;;7.71;61.55;98789.17;1749421;81;21402;-65
2022/03/03 11:11:49;;;;;;;18.95;16.93;;;;;;;7.71;61.33;98784.37;1744714;81;20966;-63
2022/03/03 11:14:18;;;;;;;15.00;13.50;;;;;;;7.68;61.22;98783.38;1747503;81;20907;-64
2022/03/03 11:16:46;;;;;;;13.40;12.00;;;;;;;7.66;61.46;98773.45;1742246;81;21541;-62
2022/03/03 11:19:14;;;;;;;13.50;12.18;;;;;;;7.63;61.51;98775.95;1755890;81;21572;-62
2022/03/03 11:21:41;;;;;;;12.07;10.75;;;;;;;7.64;61.51;98775.45;1748598;81;21155;-62
2022/03/03 11:24:09;;;;;;;12.05;10.85;;;;;;;7.67;61.60;98775.09;1748126;81;20907;-63
2022/03/03 11:26:44;;;;;;;11.95;10.85;;;;;;;7.72;61.53;98772.27;1680577;85;21501;-62
2022/03/03 11:29:16;;;;;;;10.93;9.73;;;;;;;7.79;61.83;98772.44;1704086;84;20908;-63
2022/03/03 11:32:05;;;;;;;10.63;9.15;;;;;;;7.89;61.63;98774.39;1737999;81;20991;-64
2022/03/03 11:34:38;;;;;;;10.28;9.28;;;;;;;7.95;61.34;98775.05;1743049;81;21163;-65
2022/03/03 11:37:23;;;;;;;10.18;9.25;;;;;;;8.06;61.39;98768.86;1743242;81;20990;-64
2022/03/03 11:40:00;;;;;;;10.03;9.03;;;;;;;8.12;60.80;98772.66;1751451;81;21430;-64